createdAt,value
2022-10-15T00:01:56.767Z,36.75
2022-10-15T00:04:26.309Z,36.75
2022-10-15T00:06:55.680Z,36.00
2022-10-15T00:09:25.139Z,36.75
2022-10-15T00:11:54.634Z,35.75
2022-10-15T00:14:24.094Z,34.75
2022-10-15T00:16:53.514Z,34.50
2022-10-15T00:19:22.993Z,34.25
2022-10-15T00:21:52.550Z,34.50
2022-10-15T00:24:22.052Z,35.00
2022-10-15T00:26:51.733Z,34.50
2022-10-15T00:29:21.319Z,34.00
2022-10-15T00:31:55.943Z,33.00
2022-10-15T00:34:25.425Z,35.00
2022-10-15T00:36:54.907Z,33.75
2022-10-15T00:39:24.409Z,34.50
2022-10-15T00:41:53.882Z,34.50
2022-10-15T00:44:23.845Z,35.50
2022-10-15T00:46:59.049Z,34.75
2022-10-15T00:49:28.504Z,34.00
2022-10-15T00:51:59.897Z,33.50
2022-10-15T00:54:32.246Z,35.00
2022-10-15T00:57:02.281Z,33.00
2022-10-15T00:59:32.721Z,34.00
2022-10-15T01:02:02.590Z,33.25
2022-10-15T01:04:32.655Z,34.00
2022-10-15T01:07:02.328Z,31.75
2022-10-15T01:09:31.830Z,32.50
2022-10-15T01:12:02.056Z,33.50
2022-10-15T01:14:49.429Z,35.75
2022-10-15T01:17:26.665Z,33.75
2022-10-15T01:20:11.844Z,33.00
2022-10-15T01:22:42.142Z,33.50
2022-10-15T01:25:27.219Z,33.00
2022-10-15T01:27:59.607Z,36.50
2022-10-15T01:30:29.484Z,34.25
2022-10-15T01:33:17.351Z,33.25
2022-10-15T01:35:55.156Z,33.75
2022-10-15T01:38:35.288Z,33.50
2022-10-15T01:41:08.735Z,33.50
2022-10-15T01:43:41.808Z,32.50
2022-10-15T01:46:39.063Z,32.25
2022-10-15T01:49:12.222Z,32.75
2022-10-15T01:51:48.065Z,33.50
2022-10-15T01:54:19.440Z,32.00
2022-10-15T01:56:53.408Z,32.25
2022-10-15T01:59:25.539Z,35.50
2022-10-15T02:01:58.017Z,35.50
2022-10-15T02:04:30.180Z,39.00
2022-10-15T02:07:08.910Z,43.00
2022-10-15T02:10:02.981Z,42.75
2022-10-15T02:12:39.334Z,46.25
2022-10-15T02:15:09.464Z,42.50
2022-10-15T02:17:48.129Z,41.50
2022-10-15T02:20:24.351Z,45.50
2022-10-15T02:22:54.617Z,45.75
2022-10-15T02:25:25.972Z,46.00
2022-10-15T02:27:57.603Z,45.50
2022-10-15T02:30:30.618Z,45.75
2022-10-15T02:33:01.258Z,48.50
2022-10-15T02:35:31.332Z,46.25
2022-10-15T02:38:03.168Z,44.75
2022-10-15T02:40:36.545Z,44.50
2022-10-15T02:43:08.199Z,45.25
2022-10-15T02:45:38.827Z,43.50
2022-10-15T02:48:09.527Z,45.50
2022-10-15T02:50:41.042Z,44.00
2022-10-15T02:53:10.782Z,46.00
2022-10-15T02:55:42.679Z,49.50
2022-10-15T02:58:12.437Z,49.25
2022-10-15T03:00:46.565Z,49.00
2022-10-15T03:03:16.204Z,47.00
2022-10-15T03:05:47.394Z,51.75
2022-10-15T03:08:17.486Z,48.75
2022-10-15T03:10:47.792Z,52.00
2022-10-15T03:13:17.471Z,50.50
2022-10-15T03:15:53.031Z,49.50
2022-10-15T03:18:24.711Z,48.50
2022-10-15T03:20:58.827Z,46.75
2022-10-15T03:23:29.010Z,51.00
2022-10-15T03:26:09.412Z,48.75
2022-10-15T03:28:40.083Z,44.25
2022-10-15T03:31:09.883Z,45.00
2022-10-15T03:33:39.309Z,45.50
2022-10-15T03:36:09.413Z,45.50
2022-10-15T03:38:38.967Z,42.00
2022-10-15T03:41:13.534Z,44.50
2022-10-15T03:43:44.295Z,43.00
2022-10-15T03:46:14.566Z,43.25
2022-10-15T03:48:45.894Z,46.75
2022-10-15T03:51:19.986Z,47.75
2022-10-15T03:53:56.487Z,45.00
2022-10-15T03:56:26.314Z,45.25
2022-10-15T03:59:02.624Z,45.00
2022-10-15T04:01:32.155Z,42.75
2022-10-15T04:04:04.206Z,44.75
2022-10-15T04:06:36.918Z,44.00
2022-10-15T04:09:09.988Z,45.00
2022-10-15T04:11:39.435Z,45.50
2022-10-15T04:14:09.817Z,45.00
2022-10-15T04:16:40.002Z,42.25
2022-10-15T04:19:20.977Z,44.00
2022-10-15T04:22:00.844Z,44.00
2022-10-15T04:24:41.939Z,44.00
2022-10-15T04:29:42.660Z,44.25
2022-10-15T04:32:18.212Z,45.25
2022-10-15T04:34:50.865Z,42.00
2022-10-15T04:37:28.586Z,44.00
2022-10-15T04:39:58.016Z,44.50
2022-10-15T04:42:27.557Z,41.00
2022-10-15T04:44:57.188Z,42.00
2022-10-15T04:47:26.789Z,42.75
2022-10-15T04:50:07.845Z,42.25
2022-10-15T04:52:55.386Z,41.25
2022-10-15T04:55:26.747Z,39.75
2022-10-15T04:58:01.082Z,41.75
2022-10-15T05:00:32.420Z,40.75
2022-10-15T05:03:19.807Z,38.75
2022-10-15T05:05:54.479Z,40.00
2022-10-15T05:08:23.975Z,42.25
2022-10-15T05:11:12.619Z,40.25
2022-10-15T05:13:42.493Z,40.25
2022-10-15T05:16:15.344Z,38.50
2022-10-15T05:18:47.040Z,38.75
2022-10-15T05:21:17.399Z,38.00
2022-10-15T05:23:51.454Z,38.00
2022-10-15T05:26:43.862Z,38.25
2022-10-15T05:29:13.664Z,39.25
2022-10-15T05:31:43.165Z,39.00
2022-10-15T05:34:31.714Z,38.75
2022-10-15T05:37:09.850Z,37.50
2022-10-15T05:39:42.268Z,37.00
2022-10-15T05:42:13.024Z,36.00
2022-10-15T05:44:53.328Z,36.75
2022-10-15T05:47:23.339Z,36.00
2022-10-15T05:49:58.767Z,37.50
2022-10-15T05:52:33.199Z,39.00
2022-10-15T05:55:12.463Z,36.00
2022-10-15T05:57:42.563Z,36.25
2022-10-15T06:00:12.474Z,34.00
2022-10-15T06:02:41.851Z,37.50
2022-10-15T06:05:11.337Z,36.00
2022-10-15T06:07:40.792Z,37.50
2022-10-15T06:10:10.451Z,34.00
2022-10-15T06:12:44.068Z,33.00
2022-10-15T06:15:14.194Z,34.00
2022-10-15T06:17:43.758Z,34.75
2022-10-15T06:20:14.175Z,33.00
2022-10-15T06:22:43.765Z,33.50
2022-10-15T06:25:13.241Z,33.00
2022-10-15T06:27:42.800Z,33.00
2022-10-15T06:30:12.534Z,33.25
2022-10-15T06:32:42.177Z,33.00
2022-10-15T06:35:11.733Z,32.00
2022-10-15T06:37:41.116Z,32.50
2022-10-15T06:40:11.114Z,32.00
2022-10-15T06:42:44.684Z,32.00
2022-10-15T06:45:15.883Z,33.00
2022-10-15T06:47:47.661Z,33.00
2022-10-15T06:50:18.190Z,32.50
2022-10-15T06:52:48.015Z,31.75
2022-10-15T06:55:17.528Z,33.50
2022-10-15T06:57:47.028Z,33.00
2022-10-15T07:00:19.222Z,32.50
2022-10-15T07:02:50.578Z,31.75
2022-10-15T07:05:20.896Z,32.25
2022-10-15T07:07:57.220Z,31.75
2022-10-15T07:10:28.439Z,32.00
2022-10-15T07:12:57.900Z,33.00
2022-10-15T07:15:27.496Z,32.00
2022-10-15T07:18:03.095Z,32.00
2022-10-15T07:20:33.287Z,32.50
2022-10-15T07:23:04.041Z,32.00
2022-10-15T07:25:36.166Z,33.00
2022-10-15T07:28:05.815Z,32.75
2022-10-15T07:30:35.262Z,32.00
2022-10-15T07:33:04.790Z,32.50
2022-10-15T07:35:36.838Z,30.00
2022-10-15T07:38:06.305Z,32.00
2022-10-15T07:40:36.498Z,32.25
2022-10-15T07:43:06.144Z,31.25
2022-10-15T07:45:37.003Z,32.00
2022-10-15T07:48:06.679Z,33.00
2022-10-15T07:50:39.212Z,32.50
2022-10-15T07:53:11.308Z,30.00
2022-10-15T07:55:41.755Z,32.00
2022-10-15T07:58:11.713Z,30.00
2022-10-15T08:00:41.269Z,33.00
2022-10-15T08:03:10.772Z,31.25
2022-10-15T08:05:40.294Z,32.00
2022-10-15T08:08:09.794Z,31.25
2022-10-15T08:10:39.249Z,33.25
2022-10-15T08:13:08.636Z,32.50
2022-10-15T08:15:40.534Z,36.00
2022-10-15T08:18:11.492Z,34.00
2022-10-15T08:20:41.400Z,34.75
2022-10-15T08:23:20.437Z,34.75
2022-10-15T08:25:49.793Z,33.00
2022-10-15T08:28:19.327Z,34.00
2022-10-15T08:30:48.874Z,35.00
2022-10-15T08:33:18.263Z,36.50
2022-10-15T08:35:47.726Z,36.00
2022-10-15T08:38:19.754Z,34.00
2022-10-15T08:40:54.982Z,35.50
2022-10-15T08:43:31.070Z,32.75
2022-10-15T08:46:03.788Z,34.00
2022-10-15T08:48:35.700Z,34.00
2022-10-15T08:51:06.557Z,34.00
2022-10-15T08:53:47.171Z,34.00
2022-10-15T08:56:34.923Z,33.75
2022-10-15T08:59:19.151Z,35.25
2022-10-15T09:02:00.112Z,34.00
2022-10-15T09:04:44.643Z,34.00
2022-10-15T09:07:14.061Z,33.00
2022-10-15T09:09:49.929Z,32.00
2022-10-15T09:12:37.719Z,32.00
2022-10-15T09:15:11.685Z,33.25
2022-10-15T09:17:41.633Z,32.50
2022-10-15T09:20:20.094Z,32.00
2022-10-15T09:22:55.975Z,34.25
2022-10-15T09:25:28.658Z,33.00
2022-10-15T09:28:04.405Z,33.00
2022-10-15T09:30:37.508Z,37.75
2022-10-15T09:33:27.744Z,36.50
2022-10-15T09:36:04.123Z,35.00
2022-10-15T09:38:41.036Z,35.25
2022-10-15T09:41:27.800Z,35.00
2022-10-15T09:43:59.350Z,36.00
2022-10-15T09:46:35.922Z,34.25
2022-10-15T09:49:10.872Z,33.75
2022-10-15T09:51:45.868Z,34.50
2022-10-15T09:54:23.773Z,35.50
2022-10-15T09:56:56.349Z,37.25
2022-10-15T09:59:26.769Z,34.50
2022-10-15T10:02:25.659Z,35.00
2022-10-15T10:04:56.096Z,34.75
2022-10-15T10:07:33.655Z,34.00
2022-10-15T10:10:24.308Z,33.50
2022-10-15T10:12:53.985Z,34.25
2022-10-15T10:15:30.844Z,33.00
2022-10-15T10:18:00.881Z,32.75
2022-10-15T10:20:31.927Z,35.50
2022-10-15T10:23:03.395Z,32.25
2022-10-15T10:25:40.142Z,34.00
2022-10-15T10:28:15.402Z,34.00
2022-10-15T10:30:53.647Z,32.00
2022-10-15T10:33:28.408Z,34.50
2022-10-15T10:35:58.587Z,33.25
2022-10-15T10:38:33.284Z,35.50
2022-10-15T10:41:09.768Z,33.75
2022-10-15T10:43:40.312Z,32.75
2022-10-15T10:46:27.307Z,34.00
2022-10-15T10:48:56.916Z,32.00
2022-10-15T10:51:28.258Z,34.00
2022-10-15T10:54:01.181Z,32.75
2022-10-15T10:56:30.889Z,32.00
2022-10-15T10:59:04.183Z,34.00
2022-10-15T11:01:33.608Z,32.00
2022-10-15T11:04:03.038Z,33.25
2022-10-15T11:06:56.806Z,35.50
2022-10-15T11:09:52.248Z,36.25
2022-10-15T11:12:27.883Z,34.50
2022-10-15T11:15:26.524Z,37.00
2022-10-15T11:18:14.301Z,36.25
2022-10-15T11:21:06.623Z,38.00
2022-10-15T11:23:39.386Z,35.75
2022-10-15T11:26:27.892Z,38.00
2022-10-15T11:29:26.698Z,39.50
2022-10-15T11:32:14.539Z,39.75
2022-10-15T11:35:07.765Z,38.75
2022-10-15T11:38:00.286Z,38.25
2022-10-15T11:40:33.940Z,34.00
2022-10-15T11:43:06.724Z,36.25
2022-10-15T11:45:54.997Z,37.00
2022-10-15T11:48:40.438Z,36.00
2022-10-15T11:51:13.440Z,36.00
2022-10-15T11:54:01.655Z,34.00
2022-10-15T11:56:38.865Z,35.75
2022-10-15T11:59:23.742Z,34.00
2022-10-15T12:02:00.276Z,34.75
2022-10-15T12:04:32.978Z,36.00
2022-10-15T12:07:04.539Z,34.00
2022-10-15T12:09:39.549Z,37.75
2022-10-15T12:12:22.324Z,33.75
2022-10-15T12:15:05.466Z,34.00
2022-10-15T12:17:41.229Z,33.25
2022-10-15T12:20:21.244Z,35.00
2022-10-15T12:22:59.454Z,33.50
2022-10-15T12:25:37.936Z,33.75
2022-10-15T12:28:10.651Z,33.25
2022-10-15T12:30:42.135Z,34.00
2022-10-15T12:33:26.830Z,37.75
2022-10-15T12:35:58.683Z,34.25
2022-10-15T12:38:36.686Z,34.25
2022-10-15T12:41:14.215Z,34.00
2022-10-15T12:43:46.523Z,34.00
2022-10-15T12:46:16.887Z,34.00
2022-10-15T12:48:48.338Z,34.00
2022-10-15T12:51:18.426Z,33.00
2022-10-15T12:53:48.656Z,33.00
2022-10-15T12:56:18.071Z,33.00
2022-10-15T12:58:52.646Z,34.00
2022-10-15T13:01:22.419Z,33.00
2022-10-15T13:03:54.727Z,32.00
2022-10-15T13:06:24.562Z,34.25
2022-10-15T13:08:56.821Z,33.25
2022-10-15T13:11:34.019Z,33.25
2022-10-15T13:14:22.056Z,34.00
2022-10-15T13:16:52.030Z,32.00
2022-10-15T13:19:40.668Z,33.25
2022-10-15T13:22:22.771Z,32.50
2022-10-15T13:24:52.587Z,33.50
2022-10-15T13:27:31.076Z,34.00
2022-10-15T13:30:06.564Z,34.25
2022-10-15T13:32:39.109Z,33.00
2022-10-15T13:35:13.156Z,33.25
2022-10-15T13:37:43.432Z,32.25
2022-10-15T13:40:27.548Z,32.75
2022-10-15T13:43:03.705Z,32.50
2022-10-15T13:45:34.168Z,32.00
2022-10-15T13:48:03.922Z,32.25
2022-10-15T13:50:37.805Z,33.50
2022-10-15T13:53:24.501Z,34.00
2022-10-15T13:55:56.633Z,33.00
2022-10-15T13:58:27.988Z,32.50
2022-10-15T14:01:21.983Z,32.75
2022-10-15T14:03:53.502Z,32.00
2022-10-15T14:06:27.469Z,33.00
2022-10-15T14:09:17.520Z,32.25
2022-10-15T14:11:47.920Z,32.25
2022-10-15T14:14:34.953Z,33.25
2022-10-15T14:17:07.075Z,33.00
2022-10-15T14:19:38.976Z,33.00
2022-10-15T14:22:09.149Z,32.75
2022-10-15T14:24:40.552Z,32.00
2022-10-15T14:27:16.670Z,32.75
2022-10-15T14:29:51.214Z,32.75
2022-10-15T14:32:22.594Z,32.00
2022-10-15T14:34:53.212Z,32.25
2022-10-15T14:37:47.441Z,31.25
2022-10-15T14:40:20.259Z,31.75
2022-10-15T14:43:08.600Z,32.25
2022-10-15T14:45:43.672Z,32.00
2022-10-15T14:48:18.824Z,30.25
2022-10-15T14:50:49.161Z,32.00
2022-10-15T14:53:21.009Z,31.50
2022-10-15T14:55:54.126Z,32.00
2022-10-15T14:58:24.806Z,31.00
2022-10-15T15:00:59.761Z,32.00
2022-10-15T15:03:31.879Z,33.00
2022-10-15T15:06:01.809Z,32.00
2022-10-15T15:08:32.615Z,30.50
2022-10-15T15:11:03.573Z,31.75
2022-10-15T15:13:35.003Z,33.00
2022-10-15T15:16:05.734Z,32.00
2022-10-15T15:18:36.173Z,31.25
2022-10-15T15:21:07.788Z,32.25
2022-10-15T15:23:38.549Z,32.00
2022-10-15T15:26:08.897Z,31.00
2022-10-15T15:28:39.060Z,31.00
2022-10-15T15:31:10.049Z,32.25
2022-10-15T15:33:40.114Z,30.75
2022-10-15T15:36:14.204Z,31.50
2022-10-15T15:38:45.494Z,31.00
2022-10-15T15:41:17.185Z,31.75
2022-10-15T15:43:47.955Z,30.75
2022-10-15T15:46:18.383Z,31.00
2022-10-15T15:48:48.363Z,32.25
2022-10-15T15:51:29.356Z,31.50
2022-10-15T15:54:00.687Z,32.00
2022-10-15T15:56:31.303Z,31.50
2022-10-15T15:59:01.808Z,31.50
2022-10-15T16:01:31.905Z,32.00
2022-10-15T16:04:02.108Z,30.75
2022-10-15T16:06:31.772Z,32.00
2022-10-15T16:09:01.525Z,30.50
2022-10-15T16:11:31.340Z,30.00
2022-10-15T16:14:02.910Z,30.25
2022-10-15T16:16:33.552Z,30.00
2022-10-15T16:19:03.262Z,31.50
2022-10-15T16:21:33.069Z,31.75
2022-10-15T16:24:02.676Z,31.25
2022-10-15T16:26:32.354Z,30.00
2022-10-15T16:29:03.046Z,30.00
2022-10-15T16:31:34.773Z,30.00
2022-10-15T16:34:05.719Z,30.00
2022-10-15T16:36:35.452Z,31.50
2022-10-15T16:39:05.269Z,30.00
2022-10-15T16:41:34.993Z,29.75
2022-10-15T16:44:04.742Z,31.75
2022-10-15T16:46:34.333Z,30.00
2022-10-15T16:49:03.952Z,30.25
2022-10-15T16:51:33.455Z,32.00
2022-10-15T16:54:03.023Z,30.00
2022-10-15T16:56:32.752Z,29.50
2022-10-15T16:59:02.215Z,29.75
2022-10-15T17:01:32.019Z,29.75
2022-10-15T17:04:02.010Z,30.00
2022-10-15T17:06:32.962Z,30.25
2022-10-15T17:09:05.333Z,29.75
2022-10-15T17:11:39.645Z,30.50
2022-10-15T17:14:14.374Z,29.50
2022-10-15T17:16:45.529Z,30.75
2022-10-15T17:19:16.229Z,30.25
2022-10-15T17:21:47.032Z,30.00
2022-10-15T17:24:17.388Z,30.00
2022-10-15T17:26:47.590Z,29.00
2022-10-15T17:29:29.059Z,29.75
2022-10-15T17:32:03.251Z,29.00
2022-10-15T17:34:33.225Z,30.25
2022-10-15T17:37:03.513Z,31.00
2022-10-15T17:39:33.052Z,28.75
2022-10-15T17:42:02.615Z,29.00
2022-10-15T17:44:32.183Z,30.00
2022-10-15T17:47:01.571Z,30.25
2022-10-15T17:49:31.039Z,29.25
2022-10-15T17:52:00.649Z,29.25
2022-10-15T17:54:30.099Z,29.50
2022-10-15T17:56:59.624Z,30.00
2022-10-15T17:59:29.083Z,29.25
2022-10-15T18:02:00.584Z,29.50
2022-10-15T18:04:34.383Z,29.00
2022-10-15T18:07:04.424Z,28.25
2022-10-15T18:09:34.002Z,30.00
2022-10-15T18:12:04.789Z,27.50
2022-10-15T18:14:36.726Z,29.50
2022-10-15T18:17:06.848Z,30.00
2022-10-15T18:19:36.381Z,29.50
2022-10-15T18:22:05.864Z,27.75
2022-10-15T18:24:35.332Z,30.25
2022-10-15T18:27:06.775Z,29.25
2022-10-15T18:29:37.444Z,28.25
2022-10-15T18:32:07.604Z,29.50
2022-10-15T18:34:37.175Z,29.00
2022-10-15T18:37:06.766Z,27.25
2022-10-15T18:39:37.154Z,28.00
2022-10-15T18:42:06.853Z,29.00
2022-10-15T18:44:36.433Z,28.50
2022-10-15T18:47:05.938Z,29.00
2022-10-15T18:49:44.728Z,27.75
2022-10-15T18:52:21.457Z,28.50
2022-10-15T18:54:57.715Z,27.50
2022-10-15T18:57:27.157Z,26.00
2022-10-15T18:59:56.562Z,27.50
2022-10-15T19:02:26.341Z,28.50
2022-10-15T19:04:56.066Z,28.50
2022-10-15T19:07:25.653Z,28.00
2022-10-15T19:09:55.115Z,28.25
2022-10-15T19:12:29.759Z,28.00
2022-10-15T19:14:59.826Z,28.00
2022-10-15T19:17:31.181Z,27.50
2022-10-15T19:20:00.797Z,28.00
2022-10-15T19:22:31.361Z,26.75
2022-10-15T19:25:02.423Z,28.00
2022-10-15T19:27:31.960Z,27.75
2022-10-15T19:30:01.457Z,26.50
2022-10-15T19:32:30.896Z,27.00
2022-10-15T19:35:00.347Z,27.00
2022-10-15T19:37:29.769Z,27.75
2022-10-15T19:39:59.226Z,27.00
2022-10-15T19:42:31.634Z,27.00
2022-10-15T19:45:02.073Z,26.00
2022-10-15T19:47:31.605Z,27.75
2022-10-15T19:50:00.946Z,27.75
2022-10-15T19:52:30.390Z,27.00
2022-10-15T19:54:59.826Z,27.00
2022-10-15T19:57:29.372Z,27.00
2022-10-15T19:59:58.859Z,26.00
2022-10-15T20:02:28.417Z,26.50
2022-10-15T20:04:57.871Z,27.00
2022-10-15T20:07:27.724Z,27.00
2022-10-15T20:09:57.346Z,27.25
2022-10-15T20:12:26.717Z,25.00
2022-10-15T20:14:56.227Z,26.75
2022-10-15T20:17:25.804Z,27.50
2022-10-15T20:19:55.786Z,26.25
2022-10-15T20:22:26.473Z,26.00
2022-10-15T20:24:56.216Z,26.00
2022-10-15T20:27:25.693Z,24.50
2022-10-15T20:29:55.111Z,26.50
2022-10-15T20:32:34.295Z,23.75
2022-10-15T20:35:05.302Z,25.00
2022-10-15T20:37:34.776Z,26.00
2022-10-15T20:40:04.216Z,24.00
2022-10-15T20:42:35.544Z,24.00
2022-10-15T20:45:08.943Z,25.25
2022-10-15T20:47:40.650Z,24.00
2022-10-15T20:50:13.891Z,25.75
2022-10-15T20:52:43.938Z,25.50
2022-10-15T20:55:13.531Z,23.75
2022-10-15T20:57:43.186Z,23.00
2022-10-15T21:00:12.931Z,23.25
2022-10-15T21:02:43.112Z,24.25
2022-10-15T21:05:13.762Z,25.75
2022-10-15T21:07:43.745Z,23.25
2022-10-15T21:10:13.249Z,24.00
2022-10-15T21:12:42.790Z,23.00
2022-10-15T21:15:12.191Z,22.75
2022-10-15T21:17:43.397Z,22.50
2022-10-15T21:20:12.931Z,23.50
2022-10-15T21:22:42.457Z,23.50
2022-10-15T21:25:11.987Z,23.00
2022-10-15T21:27:41.521Z,22.00
2022-10-15T21:30:11.377Z,21.75
2022-10-15T21:32:40.907Z,23.00
2022-10-15T21:35:10.432Z,23.50
2022-10-15T21:37:41.502Z,24.00
2022-10-15T21:40:11.386Z,22.75
2022-10-15T21:42:41.652Z,21.75
2022-10-15T21:45:11.506Z,21.75
2022-10-15T21:47:40.982Z,21.00
2022-10-15T21:50:10.524Z,22.50
2022-10-15T21:52:39.933Z,21.75
2022-10-15T21:55:09.610Z,21.75
2022-10-15T21:57:39.077Z,22.25
2022-10-15T22:00:10.426Z,21.75
2022-10-15T22:02:44.621Z,21.25
2022-10-15T22:05:14.266Z,20.75
2022-10-15T22:07:43.725Z,21.50
2022-10-15T22:10:13.126Z,22.50
2022-10-15T22:12:42.551Z,21.75
2022-10-15T22:15:12.356Z,20.75
2022-10-15T22:17:41.868Z,21.25
2022-10-15T22:20:11.436Z,20.00
2022-10-15T22:22:40.841Z,20.00
2022-10-15T22:25:10.527Z,21.50
2022-10-15T22:27:39.998Z,21.25
2022-10-15T22:30:09.654Z,20.25
2022-10-15T22:32:39.066Z,19.75
2022-10-15T22:35:08.683Z,19.50
2022-10-15T22:37:38.207Z,20.50
2022-10-15T22:40:07.803Z,17.75
2022-10-15T22:42:38.270Z,20.00
2022-10-15T22:45:08.081Z,19.50
2022-10-15T22:47:37.467Z,17.25
2022-10-15T22:50:07.097Z,15.50
2022-10-15T22:52:36.564Z,17.75
2022-10-15T22:55:06.139Z,19.00
2022-10-15T22:57:35.520Z,16.75
2022-10-15T23:00:06.714Z,18.00
2022-10-15T23:02:36.147Z,19.25
2022-10-15T23:05:05.561Z,18.25
2022-10-15T23:07:35.388Z,16.25
2022-10-15T23:10:04.843Z,18.75
2022-10-15T23:12:34.791Z,19.00
2022-10-15T23:15:04.224Z,17.25
2022-10-15T23:17:33.896Z,14.75
2022-10-15T23:20:03.318Z,15.50
2022-10-15T23:22:32.764Z,16.50
2022-10-15T23:25:03.658Z,19.25
2022-10-15T23:27:33.701Z,17.25
2022-10-15T23:30:14.383Z,17.75
2022-10-15T23:32:52.440Z,14.50
2022-10-15T23:35:22.007Z,16.50
2022-10-15T23:37:52.240Z,17.00
2022-10-15T23:40:21.637Z,16.50
2022-10-15T23:42:51.242Z,15.50
2022-10-15T23:45:20.747Z,17.50
2022-10-15T23:47:50.428Z,15.25
2022-10-15T23:50:19.930Z,15.25
2022-10-15T23:52:49.743Z,16.50
2022-10-15T23:55:19.252Z,16.50
2022-10-15T23:57:48.766Z,5.25
